createdAt,value
2023-03-17T00:01:27.615Z,2.37
2023-03-17T00:06:35.244Z,1.77
2023-03-17T00:11:38.418Z,2.60
2023-03-17T00:16:44.165Z,2.30
2023-03-17T00:21:49.326Z,2.07
2023-03-17T00:26:53.361Z,2.07
2023-03-17T00:31:58.897Z,2.03
2023-03-17T00:37:04.292Z,2.33
2023-03-17T00:42:07.887Z,2.20
2023-03-17T00:47:13.139Z,2.20
2023-03-17T00:52:17.957Z,2.03
2023-03-17T00:57:21.195Z,3.30
2023-03-17T01:02:24.795Z,2.20
2023-03-17T01:07:30.534Z,2.33
2023-03-17T01:12:33.947Z,2.03
2023-03-17T01:17:38.148Z,2.03
2023-03-17T01:22:43.044Z,2.10
2023-03-17T01:27:48.013Z,3.47
2023-03-17T01:32:51.559Z,2.00
2023-03-17T01:37:57.254Z,1.50
2023-03-17T01:43:05.685Z,2.00
2023-03-17T01:48:09.237Z,1.70
2023-03-17T01:53:14.449Z,1.30
2023-03-17T01:58:19.388Z,3.37
2023-03-17T02:03:24.090Z,1.63
2023-03-17T02:08:28.760Z,1.37
2023-03-17T02:13:32.968Z,1.67
2023-03-17T02:18:36.158Z,1.77
2023-03-17T02:23:41.489Z,1.33
2023-03-17T02:28:46.317Z,1.20
2023-03-17T02:33:49.690Z,1.50
2023-03-17T02:38:54.997Z,1.43
2023-03-17T02:43:58.400Z,1.63
2023-03-17T02:49:02.704Z,1.33
2023-03-17T02:54:07.341Z,1.37
2023-03-17T02:59:11.233Z,1.30
2023-03-17T03:04:14.411Z,1.30
2023-03-17T03:09:19.071Z,1.30
2023-03-17T03:14:22.186Z,1.00
2023-03-17T03:19:25.425Z,2.20
2023-03-17T03:24:30.167Z,1.10
2023-03-17T03:29:33.570Z,0.73
2023-03-17T03:34:36.748Z,1.00
2023-03-17T03:39:41.538Z,1.00
2023-03-17T03:44:44.818Z,1.00
2023-03-17T03:49:48.144Z,1.63
2023-03-17T03:54:52.770Z,1.10
2023-03-17T03:59:56.276Z,0.90
2023-03-17T04:04:59.529Z,1.00
2023-03-17T04:10:04.983Z,1.20
2023-03-17T04:15:11.286Z,0.87
2023-03-17T04:20:16.534Z,0.93
2023-03-17T04:25:22.442Z,1.40
2023-03-17T04:30:26.475Z,1.40
2023-03-17T04:35:29.799Z,0.60
2023-03-17T04:40:34.386Z,0.67
2023-03-17T04:45:37.786Z,0.87
2023-03-17T04:50:42.444Z,5.00
2023-03-17T04:55:47.253Z,0.70
2023-03-17T05:00:50.880Z,0.70
2023-03-17T05:05:55.020Z,0.70
2023-03-17T05:11:01.565Z,0.83
2023-03-17T05:16:06.520Z,1.07
2023-03-17T05:21:11.142Z,0.53
2023-03-17T05:26:16.732Z,0.80
2023-03-17T05:31:20.378Z,1.80
2023-03-17T05:36:24.559Z,0.70
2023-03-17T05:41:29.598Z,0.70
2023-03-17T05:46:32.861Z,1.70
2023-03-17T05:51:37.043Z,0.73
2023-03-17T05:56:43.009Z,1.03
2023-03-17T06:01:46.522Z,0.70
2023-03-17T06:06:49.967Z,1.90
2023-03-17T06:11:54.571Z,3.60
2023-03-17T06:16:58.066Z,1.60
2023-03-17T06:22:01.285Z,0.70
2023-03-17T06:27:06.170Z,0.93
2023-03-17T06:32:20.307Z,1.07
2023-03-17T06:37:24.396Z,1.30
2023-03-17T06:42:29.121Z,1.93
2023-03-17T06:47:32.438Z,3.50
2023-03-17T06:52:36.083Z,1.23
2023-03-17T06:57:40.653Z,0.50
2023-03-17T07:02:44.273Z,0.70
2023-03-17T07:07:47.472Z,1.37
2023-03-17T07:12:52.256Z,0.47
2023-03-17T07:17:56.009Z,0.63
2023-03-17T07:22:59.646Z,1.00
2023-03-17T07:28:04.855Z,0.80
2023-03-17T07:33:08.421Z,0.50
2023-03-17T07:38:12.027Z,0.60
2023-03-17T07:43:17.782Z,0.67
2023-03-17T07:48:21.330Z,0.60
2023-03-17T07:53:25.291Z,0.80
2023-03-17T07:58:30.081Z,0.67
2023-03-17T08:03:34.093Z,6.50
2023-03-17T08:08:38.232Z,2.03
2023-03-17T08:13:42.774Z,0.93
2023-03-17T08:18:45.980Z,1.70
2023-03-17T08:23:49.812Z,0.77
2023-03-17T08:28:54.445Z,1.77
2023-03-17T08:33:57.922Z,0.90
2023-03-17T08:39:01.208Z,0.30
2023-03-17T08:44:05.883Z,0.40
2023-03-17T08:49:09.693Z,0.60
2023-03-17T08:54:14.143Z,0.50
2023-03-17T08:59:19.003Z,0.63
2023-03-17T09:04:23.480Z,0.63
2023-03-17T09:09:26.730Z,0.40
2023-03-17T09:14:40.077Z,0.43
2023-03-17T09:19:46.020Z,0.60
2023-03-17T09:24:49.369Z,0.63
2023-03-17T09:29:54.183Z,0.67
2023-03-17T09:34:57.690Z,0.60
2023-03-17T09:40:01.207Z,0.57
2023-03-17T09:45:21.160Z,0.50
2023-03-17T09:50:28.431Z,0.40
2023-03-17T09:55:34.206Z,1.80
2023-03-17T10:00:39.633Z,1.17
2023-03-17T10:05:42.835Z,0.63
2023-03-17T10:10:49.522Z,0.50
2023-03-17T10:15:59.414Z,0.53
2023-03-17T10:21:06.054Z,0.70
2023-03-17T10:26:22.181Z,0.93
2023-03-17T10:31:33.202Z,1.30
2023-03-17T10:36:39.153Z,0.43
2023-03-17T10:41:55.610Z,1.43
2023-03-17T10:47:00.837Z,0.60
2023-03-17T10:52:08.902Z,0.47
2023-03-17T10:57:15.486Z,0.80
2023-03-17T11:02:25.290Z,1.40
2023-03-17T11:07:31.518Z,4.73
2023-03-17T11:12:40.174Z,0.47
2023-03-17T11:17:53.148Z,3.93
2023-03-17T11:23:04.858Z,0.50
2023-03-17T11:28:20.355Z,1.67
2023-03-17T11:33:36.656Z,0.40
2023-03-17T11:38:50.036Z,0.40
2023-03-17T11:44:09.239Z,1.03
2023-03-17T11:49:19.121Z,0.67
2023-03-17T11:54:29.901Z,0.50
2023-03-17T11:59:39.835Z,0.80
2023-03-17T12:04:53.200Z,0.87
2023-03-17T12:10:05.173Z,2.10
2023-03-17T12:15:16.863Z,0.53
2023-03-17T12:20:31.155Z,0.63
2023-03-17T12:25:37.193Z,0.50
2023-03-17T12:30:51.322Z,1.27
2023-03-17T12:35:56.088Z,1.70
2023-03-17T12:41:21.408Z,1.03
2023-03-17T12:46:45.675Z,2.93
2023-03-17T12:52:05.532Z,0.90
2023-03-17T12:57:16.080Z,0.60
2023-03-17T13:02:32.151Z,0.60
2023-03-17T13:07:42.361Z,0.70
2023-03-17T13:13:12.058Z,0.50
2023-03-17T13:18:50.421Z,2.30
2023-03-17T13:24:38.842Z,0.50
2023-03-17T13:29:48.769Z,1.30
2023-03-17T13:34:53.939Z,2.47
2023-03-17T13:40:17.574Z,0.50
2023-03-17T13:45:37.340Z,0.80
2023-03-17T13:50:41.394Z,1.13
2023-03-17T13:56:09.774Z,0.67
2023-03-17T14:01:15.359Z,0.70
2023-03-17T14:06:21.180Z,0.57
2023-03-17T14:11:29.893Z,1.00
2023-03-17T14:16:36.972Z,0.50
2023-03-17T14:21:40.855Z,1.50
2023-03-17T14:26:45.671Z,0.50
2023-03-17T14:31:51.039Z,1.27
2023-03-17T14:36:54.370Z,1.20
2023-03-17T14:42:05.002Z,1.10
2023-03-17T14:47:16.101Z,1.40
2023-03-17T14:52:21.920Z,0.70
2023-03-17T14:57:32.755Z,0.83
2023-03-17T15:02:38.093Z,1.90
2023-03-17T15:07:43.454Z,1.50
2023-03-17T15:12:49.364Z,1.10
2023-03-17T15:17:55.750Z,0.60
2023-03-17T15:23:01.888Z,0.63
2023-03-17T15:28:12.696Z,0.50
2023-03-17T15:33:23.016Z,0.80
2023-03-17T15:38:26.761Z,1.30
2023-03-17T15:43:31.820Z,1.37
2023-03-17T15:48:37.486Z,0.93
2023-03-17T15:53:40.691Z,0.63
2023-03-17T15:58:45.444Z,0.90
2023-03-17T16:03:49.866Z,1.20
2023-03-17T16:08:53.259Z,0.97
2023-03-17T16:13:59.770Z,9.50
2023-03-17T16:19:04.793Z,2.23
2023-03-17T16:24:10.424Z,0.83
2023-03-17T16:29:16.554Z,0.90
2023-03-17T16:34:21.709Z,2.10
2023-03-17T16:39:26.575Z,1.10
2023-03-17T16:44:31.943Z,1.13
2023-03-17T16:49:35.654Z,4.73
2023-03-17T16:54:42.407Z,2.70
2023-03-17T16:59:47.489Z,16.20
2023-03-17T17:04:51.254Z,32.53
2023-03-17T17:09:55.252Z,13.07
2023-03-17T17:14:59.938Z,21.87
2023-03-17T17:20:04.744Z,29.67
2023-03-17T17:25:10.145Z,10.00
2023-03-17T17:30:16.947Z,19.37
2023-03-17T17:35:20.602Z,22.00
2023-03-17T17:40:25.916Z,42.03
2023-03-17T17:45:30.748Z,11.00
2023-03-17T17:50:34.234Z,5.33
2023-03-17T17:55:37.909Z,10.87
2023-03-17T18:00:44.613Z,7.83
2023-03-17T18:05:47.989Z,7.57
2023-03-17T18:10:52.261Z,4.70
2023-03-17T18:15:57.154Z,4.57
2023-03-17T18:21:00.293Z,3.73
2023-03-17T18:26:06.048Z,4.20
2023-03-17T18:31:14.483Z,16.20
2023-03-17T18:36:18.948Z,25.60
2023-03-17T18:41:22.337Z,10.30
2023-03-17T18:46:26.816Z,10.70
2023-03-17T18:51:30.074Z,10.80
2023-03-17T18:56:33.653Z,12.10
2023-03-17T19:01:38.397Z,16.10
2023-03-17T19:06:42.980Z,19.87
2023-03-17T19:11:46.409Z,16.20
2023-03-17T19:16:51.311Z,2.40
2023-03-17T19:21:54.899Z,3.40
2023-03-17T19:26:58.296Z,1.53
2023-03-17T19:32:02.915Z,2.23
2023-03-17T19:37:06.063Z,1.10
2023-03-17T19:42:09.465Z,18.40
2023-03-17T19:47:13.999Z,0.90
2023-03-17T19:52:17.240Z,1.87
2023-03-17T19:57:20.992Z,2.80
2023-03-17T20:02:25.757Z,1.57
2023-03-17T20:07:29.097Z,4.93
2023-03-17T20:12:32.900Z,1.40
2023-03-17T20:17:37.754Z,1.00
2023-03-17T20:22:43.594Z,26.43
2023-03-17T20:27:47.008Z,6.97
2023-03-17T20:32:51.611Z,3.00
2023-03-17T20:37:57.069Z,2.20
2023-03-17T20:43:00.243Z,2.20
2023-03-17T20:48:06.731Z,3.23
2023-03-17T20:53:11.713Z,6.53
2023-03-17T20:58:14.805Z,1.70
2023-03-17T21:03:20.988Z,1.00
2023-03-17T21:08:25.084Z,1.13
2023-03-17T21:13:28.634Z,1.80
2023-03-17T21:18:33.254Z,1.10
2023-03-17T21:23:38.814Z,0.90
2023-03-17T21:28:43.531Z,4.30
2023-03-17T21:33:50.547Z,0.80
2023-03-17T21:38:54.318Z,0.70
2023-03-17T21:43:58.036Z,1.10
2023-03-17T21:49:02.672Z,2.13
2023-03-17T21:54:06.428Z,0.67
2023-03-17T21:59:11.053Z,1.00
2023-03-17T22:04:15.619Z,1.00
2023-03-17T22:09:19.462Z,1.10
2023-03-17T22:14:23.023Z,2.00
2023-03-17T22:19:28.890Z,0.97
2023-03-17T22:24:32.474Z,0.87
2023-03-17T22:29:35.804Z,1.60
2023-03-17T22:34:40.498Z,2.20
2023-03-17T22:39:43.926Z,1.00
2023-03-17T22:44:47.404Z,2.07
2023-03-17T22:49:52.790Z,0.80
2023-03-17T22:54:56.330Z,1.00
2023-03-17T22:59:59.552Z,1.13
2023-03-17T23:05:04.448Z,2.67
2023-03-17T23:10:09.174Z,1.17
2023-03-17T23:15:13.426Z,1.10
2023-03-17T23:20:19.114Z,1.50
2023-03-17T23:25:22.862Z,1.37
2023-03-17T23:30:26.674Z,1.40
2023-03-17T23:35:31.746Z,1.17
2023-03-17T23:40:35.222Z,2.43
2023-03-17T23:45:38.977Z,1.00
2023-03-17T23:50:44.176Z,1.50
2023-03-17T23:55:47.461Z,1.33
